Time;durP1;ratioP1;P1;durP2;ratioP2;P2;SDS_P1;SDS_P2;PMS_P1;PMS_P2;Temp;Humidity;BMP_temperature;BMP_pressure;BME280_temperature;BME280_humidity;BME280_pressure;Samples;Min_cycle;Max_cycle;Signal;HPM_P1;HPM_P2
2022/02/13 00:01:20;;;;;;;10.67;9.67;;;4.30;45.70;;;;;;5138031;27;20607;-44
2022/02/13 00:03:47;;;;;;;10.80;9.70;;;4.30;45.80;;;;;;5139953;27;20455;-44
2022/02/13 00:06:13;;;;;;;13.03;10.23;;;4.30;45.90;;;;;;5138824;27;20436;-44
2022/02/13 00:08:38;;;;;;;11.13;10.00;;;4.30;46.00;;;;;;5140385;27;20417;-44
2022/02/13 00:11:04;;;;;;;10.23;8.87;;;4.30;46.10;;;;;;5138538;27;20175;-44
2022/02/13 00:13:29;;;;;;;9.77;8.77;;;4.30;46.20;;;;;;5139771;27;20453;-44
2022/02/13 00:15:55;;;;;;;9.97;8.97;;;4.20;46.20;;;;;;5138712;27;20171;-44
2022/02/13 00:18:20;;;;;;;9.63;8.57;;;4.20;46.70;;;;;;5140012;27;20216;-44
2022/02/13 00:20:46;;;;;;;10.27;9.20;;;4.20;46.30;;;;;;5139482;27;20176;-44
2022/02/13 00:23:12;;;;;;;9.90;8.90;;;4.20;46.40;;;;;;5139215;27;20262;-44
2022/02/13 00:25:37;;;;;;;9.90;8.57;;;4.20;46.50;;;;;;5139580;27;20458;-44
2022/02/13 00:28:07;;;;;;;11.60;10.27;;;4.20;46.50;;;;;;5138613;27;20172;-44
2022/02/13 00:30:33;;;;;;;12.13;9.53;;;4.20;46.50;;;;;;5140021;27;20255;-44
2022/02/13 00:32:58;;;;;;;11.37;10.17;;;4.10;46.60;;;;;;5137487;27;20524;-44
2022/02/13 00:35:26;;;;;;;12.37;9.60;;;4.10;46.80;;;;;;5139851;27;20207;-44
2022/02/13 00:37:51;;;;;;;9.50;8.47;;;4.10;46.90;;;;;;5138664;27;20523;-44
2022/02/13 00:40:18;;;;;;;10.20;9.20;;;4.00;46.90;;;;;;5139522;27;20503;-44
2022/02/13 00:42:44;;;;;;;10.73;9.73;;;4.00;47.00;;;;;;5136909;27;20202;-44
2022/02/13 00:45:11;;;;;;;10.40;8.93;;;4.00;47.20;;;;;;5138924;27;20413;-44
2022/02/13 00:47:37;;;;;;;10.90;9.80;;;4.00;47.50;;;;;;5136509;27;20250;-44
2022/02/13 00:50:02;;;;;;;10.80;9.80;;;4.00;47.60;;;;;;5138461;27;20500;-44
2022/02/13 00:52:30;;;;;;;10.70;9.30;;;4.00;47.80;;;;;;5137295;27;20433;-43
2022/02/13 00:54:56;;;;;;;10.83;9.47;;;4.00;47.90;;;;;;5120317;27;20191;-44
2022/02/13 00:57:21;;;;;;;10.37;9.40;;;4.00;48.00;;;;;;5138882;27;20822;-44
2022/02/13 00:59:47;;;;;;;11.20;10.03;;;4.00;48.20;;;;;;5137453;27;20188;-44
2022/02/13 01:02:13;;;;;;;11.13;9.30;;;3.90;48.30;;;;;;5138926;27;20717;-44
2022/02/13 01:04:38;;;;;;;9.77;8.83;;;4.00;48.50;;;;;;5139393;27;20190;-44
2022/02/13 01:07:04;;;;;;;10.97;9.30;;;3.90;48.50;;;;;;5136535;27;20617;-44
2022/02/13 01:09:30;;;;;;;9.10;8.13;;;3.90;48.60;;;;;;5120461;27;20515;-44
2022/02/13 01:11:55;;;;;;;11.23;9.00;;;4.00;48.70;;;;;;5136767;27;20262;-44
2022/02/13 01:14:21;;;;;;;10.33;8.77;;;3.90;48.80;;;;;;5137045;27;20179;-44
2022/02/13 01:16:46;;;;;;;10.50;9.20;;;3.90;48.90;;;;;;5135323;27;20179;-44
2022/02/13 01:19:12;;;;;;;10.07;9.07;;;3.90;49.10;;;;;;5135948;27;20231;-44
2022/02/13 01:21:38;;;;;;;11.43;8.60;;;3.90;49.40;;;;;;5134490;27;20605;-44
2022/02/13 01:24:04;;;;;;;9.97;8.93;;;3.90;49.40;;;;;;5136518;27;20214;-44
2022/02/13 01:26:29;;;;;;;12.17;9.63;;;3.90;49.50;;;;;;5134973;27;20186;-42
2022/02/13 01:28:55;;;;;;;8.03;6.97;;;3.90;49.60;;;;;;5136861;28;20417;-44
2022/02/13 01:31:21;;;;;;;4.90;3.40;;;3.90;51.70;;;;;;5136287;28;20175;-44
2022/02/13 01:33:46;;;;;;;6.47;5.57;;;4.80;92.80;;;;;;5138522;28;20180;-43
2022/02/13 01:36:13;;;;;;;4.90;4.40;;;5.80;99.90;;;;;;5117913;28;20186;-43
2022/02/13 01:38:38;;;;;;;6.00;4.40;;;6.90;99.90;;;;;;5119128;28;20191;-44
2022/02/13 01:41:05;;;;;;;5.20;4.70;;;7.80;99.20;;;;;;5136578;28;20588;-44
2022/02/13 01:43:31;;;;;;;6.83;6.10;;;8.70;96.60;;;;;;5136592;28;20186;-44
2022/02/13 01:45:57;;;;;;;9.47;7.80;;;9.20;93.20;;;;;;5135583;28;20417;-44
2022/02/13 01:48:22;;;;;;;9.30;7.40;;;9.30;85.40;;;;;;5136985;28;20416;-44
2022/02/13 01:50:50;;;;;;;7.97;7.20;;;8.90;77.20;;;;;;5135608;28;20439;-44
2022/02/13 01:53:16;;;;;;;7.97;7.23;;;8.50;72.60;;;;;;5137152;28;20181;-45
2022/02/13 01:55:45;;;;;;;8.00;7.20;;;8.00;70.10;;;;;;5135462;28;20705;-44
2022/02/13 01:58:11;;;;;;;8.90;8.10;;;7.50;68.20;;;;;;5138104;27;20176;-43
2022/02/13 02:00:37;;;;;;;10.23;8.47;;;7.00;67.20;;;;;;5140408;27;20484;-44
2022/02/13 02:03:02;;;;;;;10.23;8.60;;;6.70;66.90;;;;;;5140650;27;20227;-44
2022/02/13 02:05:29;;;;;;;8.60;7.80;;;6.30;66.80;;;;;;5139158;27;20212;-44
2022/02/13 02:07:55;;;;;;;8.20;7.40;;;6.10;66.80;;;;;;5140233;27;20207;-44
2022/02/13 02:10:21;;;;;;;9.57;8.60;;;5.80;66.80;;;;;;5120294;27;20456;-44
2022/02/13 02:12:48;;;;;;;8.40;6.93;;;5.60;67.10;;;;;;5139950;27;20292;-45
2022/02/13 02:15:13;;;;;;;9.40;8.40;;;5.40;67.20;;;;;;5138673;27;20417;-45
2022/02/13 02:17:39;;;;;;;10.90;9.40;;;5.30;67.60;;;;;;5122966;27;20505;-44
2022/02/13 02:20:05;;;;;;;10.27;8.67;;;5.20;68.00;;;;;;5141096;27;20270;-44
2022/02/13 02:22:31;;;;;;;9.87;8.70;;;5.00;68.10;;;;;;5142310;27;20211;-44
2022/02/13 02:24:56;;;;;;;10.37;9.30;;;4.90;68.20;;;;;;5142301;27;20412;-44
2022/02/13 02:27:22;;;;;;;9.63;8.57;;;4.90;68.70;;;;;;5122635;27;20187;-44
2022/02/13 02:29:48;;;;;;;12.70;8.37;;;4.80;68.80;;;;;;5141608;27;20176;-45
2022/02/13 02:32:14;;;;;;;9.40;7.90;;;4.70;68.90;;;;;;5141187;27;20537;-45
2022/02/13 02:34:41;;;;;;;8.13;7.43;;;4.70;69.20;;;;;;5141335;27;20492;-44
2022/02/13 02:37:07;;;;;;;10.33;7.87;;;4.60;69.20;;;;;;5140190;27;20913;-44
2022/02/13 02:39:33;;;;;;;11.03;8.73;;;4.60;69.40;;;;;;5141491;27;20415;-45
2022/02/13 02:42:00;;;;;;;10.87;9.13;;;4.50;69.30;;;;;;5141050;27;20719;-44
2022/02/13 02:44:25;;;;;;;10.47;7.63;;;4.50;69.30;;;;;;5140963;27;20508;-44
2022/02/13 02:46:51;;;;;;;8.30;7.50;;;4.50;69.40;;;;;;5139514;27;20806;-44
2022/02/13 02:49:17;;;;;;;11.87;8.07;;;4.50;69.40;;;;;;5122644;27;20197;-44
2022/02/13 02:51:42;;;;;;;10.07;8.10;;;4.40;69.40;;;;;;5141144;27;20190;-45
2022/02/13 02:54:08;;;;;;;11.67;8.57;;;4.40;69.50;;;;;;5138966;27;20570;-44
2022/02/13 02:56:34;;;;;;;9.83;8.10;;;4.40;69.60;;;;;;5140076;27;20191;-44
2022/02/13 02:58:59;;;;;;;8.70;7.80;;;4.40;69.70;;;;;;5139024;27;20182;-44
2022/02/13 03:01:25;;;;;;;9.87;8.17;;;4.40;69.80;;;;;;5139632;27;20212;-44
2022/02/13 03:03:51;;;;;;;9.67;8.40;;;4.40;69.80;;;;;;5138009;27;20449;-44
2022/02/13 03:06:17;;;;;;;8.80;7.90;;;4.30;69.80;;;;;;5140150;27;20260;-44
2022/02/13 03:08:42;;;;;;;9.60;8.57;;;4.30;70.00;;;;;;5139832;27;20478;-44
2022/02/13 03:11:09;;;;;;;10.77;8.73;;;4.30;70.20;;;;;;5139982;27;20187;-44
2022/02/13 03:13:35;;;;;;;9.20;8.30;;;4.30;70.40;;;;;;5138916;27;20194;-45
2022/02/13 03:16:01;;;;;;;10.57;9.07;;;4.20;70.40;;;;;;5140209;27;20449;-44
2022/02/13 03:18:30;;;;;;;10.10;8.60;;;4.20;70.60;;;;;;5139203;27;20484;-45
2022/02/13 03:20:56;;;;;;;9.40;8.50;;;4.20;70.70;;;;;;5139772;27;20417;-45
2022/02/13 03:23:22;;;;;;;9.20;8.30;;;4.20;70.70;;;;;;5120824;27;20421;-44
2022/02/13 03:25:48;;;;;;;8.90;8.00;;;4.10;70.60;;;;;;5140813;27;20458;-44
2022/02/13 03:28:14;;;;;;;9.90;8.70;;;4.10;70.60;;;;;;5139899;27;20419;-45
2022/02/13 03:30:40;;;;;;;8.83;7.93;;;4.10;70.70;;;;;;5141030;27;20619;-44
2022/02/13 03:33:06;;;;;;;9.80;8.83;;;4.10;70.80;;;;;;5121083;27;20429;-45
2022/02/13 03:35:32;;;;;;;9.30;8.37;;;4.00;70.90;;;;;;5140057;27;20183;-44
2022/02/13 03:37:57;;;;;;;9.93;8.63;;;4.00;71.00;;;;;;5138041;27;20172;-44
2022/02/13 03:40:23;;;;;;;8.47;7.57;;;4.00;71.20;;;;;;5138420;27;20421;-43
2022/02/13 03:42:49;;;;;;;9.53;8.30;;;4.00;71.30;;;;;;5138317;27;20207;-45
2022/02/13 03:45:14;;;;;;;8.77;7.87;;;4.00;71.40;;;;;;5139385;27;20179;-45
2022/02/13 03:47:41;;;;;;;9.57;8.40;;;4.00;71.40;;;;;;5139324;27;20176;-45
2022/02/13 03:50:07;;;;;;;9.07;8.17;;;4.00;71.50;;;;;;5137997;27;20733;-45
2022/02/13 03:52:33;;;;;;;9.30;8.30;;;4.00;71.60;;;;;;5120745;27;20425;-45
2022/02/13 03:55:00;;;;;;;10.30;7.63;;;3.90;71.60;;;;;;5137678;27;20435;-45
2022/02/13 03:57:26;;;;;;;8.90;7.50;;;3.90;71.80;;;;;;5138460;27;20653;-44
2022/02/13 03:59:52;;;;;;;9.30;8.17;;;3.90;72.10;;;;;;5136952;27;20421;-45
2022/02/13 04:02:17;;;;;;;8.80;7.37;;;3.90;72.20;;;;;;5137367;27;20917;-45
2022/02/13 04:04:43;;;;;;;9.43;7.73;;;3.90;72.40;;;;;;5137293;27;20474;-45
2022/02/13 04:07:09;;;;;;;10.57;8.40;;;3.90;72.30;;;;;;5138532;27;20178;-44
2022/02/13 04:09:34;;;;;;;10.10;8.20;;;3.90;72.40;;;;;;5137403;27;20193;-46
2022/02/13 04:12:00;;;;;;;8.60;7.50;;;3.90;72.40;;;;;;5139100;27;20495;-44
2022/02/13 04:14:25;;;;;;;8.63;7.73;;;3.90;72.30;;;;;;5120526;27;20185;-49
2022/02/13 04:16:51;;;;;;;9.20;8.30;;;3.90;72.70;;;;;;5139651;27;20203;-44
2022/02/13 04:19:17;;;;;;;8.73;7.83;;;3.90;73.10;;;;;;5139058;27;20274;-44
2022/02/13 04:21:42;;;;;;;8.50;7.70;;;3.90;72.40;;;;;;5139339;27;20203;-44
2022/02/13 04:24:08;;;;;;;9.73;7.47;;;3.80;72.20;;;;;;5139037;27;20546;-45
2022/02/13 04:26:35;;;;;;;9.10;7.47;;;3.90;72.30;;;;;;5139677;27;20167;-44
2022/02/13 04:29:02;;;;;;;10.00;7.80;;;3.80;72.20;;;;;;5121310;27;20168;-45
2022/02/13 04:31:28;;;;;;;8.70;7.77;;;3.80;72.20;;;;;;5139383;27;20417;-44
2022/02/13 04:33:53;;;;;;;10.57;7.83;;;3.80;72.20;;;;;;5138140;27;20705;-44
2022/02/13 04:36:19;;;;;;;8.00;7.20;;;3.80;72.30;;;;;;5139733;27;20186;-44
2022/02/13 04:38:44;;;;;;;9.63;7.60;;;3.80;72.40;;;;;;5140013;27;20175;-44
2022/02/13 04:41:10;;;;;;;7.80;7.00;;;3.80;72.50;;;;;;5139145;27;20214;-44
2022/02/13 04:43:36;;;;;;;10.60;8.10;;;3.80;72.60;;;;;;5139317;27;20172;-45
2022/02/13 04:46:01;;;;;;;9.40;8.43;;;3.80;72.90;;;;;;5139011;27;20175;-45
2022/02/13 04:48:27;;;;;;;8.77;7.63;;;3.70;73.00;;;;;;5139159;27;20178;-44
2022/02/13 04:50:53;;;;;;;8.87;7.97;;;3.70;73.10;;;;;;5138102;27;20215;-44
2022/02/13 04:53:18;;;;;;;8.97;7.70;;;3.70;73.20;;;;;;5121345;27;20214;-45
2022/02/13 04:55:44;;;;;;;9.87;7.80;;;3.70;73.50;;;;;;5138327;27;20176;-45
2022/02/13 04:58:09;;;;;;;8.20;7.40;;;3.70;73.50;;;;;;5139325;27;20179;-44
2022/02/13 05:00:35;;;;;;;10.40;7.93;;;3.70;73.40;;;;;;5137433;27;20175;-44
2022/02/13 05:03:01;;;;;;;9.60;7.63;;;3.70;73.40;;;;;;5119787;27;20207;-47
2022/02/13 05:05:26;;;;;;;8.77;7.40;;;3.70;73.40;;;;;;5136943;27;20210;-47
2022/02/13 05:07:53;;;;;;;8.63;7.33;;;3.70;73.40;;;;;;5138654;27;20167;-47
2022/02/13 05:10:19;;;;;;;9.20;8.17;;;3.80;73.40;;;;;;5136936;27;20175;-47
2022/02/13 05:12:47;;;;;;;7.80;7.10;;;3.80;73.30;;;;;;5138774;27;20509;-47
2022/02/13 05:15:13;;;;;;;8.07;7.27;;;3.90;73.40;;;;;;5138281;27;20433;-47
2022/02/13 05:17:39;;;;;;;8.63;7.73;;;3.90;73.30;;;;;;5120491;27;20817;-47
2022/02/13 05:20:05;;;;;;;8.57;7.53;;;3.90;73.10;;;;;;5137658;27;20194;-47
2022/02/13 05:22:32;;;;;;;8.50;7.17;;;3.90;73.00;;;;;;5139054;27;20214;-47
2022/02/13 05:24:57;;;;;;;9.17;7.93;;;3.90;73.00;;;;;;5137224;27;20417;-47
2022/02/13 05:27:23;;;;;;;8.20;7.40;;;3.90;73.00;;;;;;5139243;27;20501;-47
2022/02/13 05:29:49;;;;;;;9.30;7.00;;;3.90;73.00;;;;;;5138334;27;20171;-47
2022/02/13 05:32:14;;;;;;;8.47;7.17;;;3.90;73.00;;;;;;5138740;28;20186;-47
2022/02/13 05:34:40;;;;;;;8.93;6.60;;;3.90;73.00;;;;;;5143461;27;20174;-47
2022/02/13 05:37:06;;;;;;;10.30;7.27;;;3.90;73.10;;;;;;5145001;27;20214;-47
2022/02/13 05:39:32;;;;;;;9.00;7.53;;;3.90;73.20;;;;;;5126301;27;20424;-47
2022/02/13 05:41:58;;;;;;;8.87;7.97;;;3.90;73.20;;;;;;5145799;27;20516;-47
2022/02/13 05:44:24;;;;;;;7.57;6.47;;;3.90;73.10;;;;;;5144241;27;20448;-47
2022/02/13 05:46:49;;;;;;;10.80;7.47;;;4.00;73.10;;;;;;5145240;27;20183;-47
2022/02/13 05:49:15;;;;;;;8.83;7.90;;;4.00;73.00;;;;;;5144642;27;20412;-47
2022/02/13 05:51:41;;;;;;;8.03;7.23;;;4.00;72.90;;;;;;5145359;27;20228;-47
2022/02/13 05:54:07;;;;;;;7.30;6.60;;;4.00;73.00;;;;;;5144341;27;20440;-47
2022/02/13 05:56:32;;;;;;;7.57;6.40;;;4.00;72.90;;;;;;5145064;27;20183;-47
2022/02/13 05:58:58;;;;;;;10.20;6.93;;;3.90;72.90;;;;;;5143556;27;20551;-47
2022/02/13 06:01:24;;;;;;;8.53;7.20;;;4.00;73.10;;;;;;5145099;27;20226;-47
2022/02/13 06:03:50;;;;;;;7.60;6.60;;;4.00;73.20;;;;;;5143118;27;20422;-47
2022/02/13 06:06:16;;;;;;;7.87;7.03;;;3.90;73.40;;;;;;5143986;27;20258;-47
2022/02/13 06:08:43;;;;;;;8.13;7.20;;;3.90;73.50;;;;;;5144683;27;20168;-47
2022/02/13 06:11:12;;;;;;;9.43;7.93;;;3.90;73.50;;;;;;5143340;27;20428;-47
2022/02/13 06:13:38;;;;;;;9.27;7.80;;;3.90;73.60;;;;;;5144401;27;20405;-47
2022/02/13 06:16:06;;;;;;;9.00;7.90;;;3.90;73.70;;;;;;5143362;27;20651;-47
2022/02/13 06:18:32;;;;;;;8.80;7.70;;;3.90;73.80;;;;;;5127199;27;20476;-47
2022/02/13 06:20:58;;;;;;;8.80;7.47;;;3.90;73.90;;;;;;5143633;27;20458;-47
2022/02/13 06:23:23;;;;;;;9.40;7.00;;;3.90;73.90;;;;;;5144794;27;20507;-47
2022/02/13 06:25:49;;;;;;;8.17;7.37;;;3.90;74.60;;;;;;5143827;27;20182;-46
2022/02/13 06:28:14;;;;;;;7.70;6.90;;;3.90;73.90;;;;;;5144395;27;20210;-47
2022/02/13 06:30:40;;;;;;;7.53;6.80;;;3.90;74.00;;;;;;5143115;27;20183;-47
2022/02/13 06:33:06;;;;;;;8.13;7.33;;;3.90;74.00;;;;;;5144413;27;20214;-47
2022/02/13 06:35:32;;;;;;;8.53;6.83;;;3.90;74.00;;;;;;5142787;27;20207;-47
2022/02/13 06:38:00;;;;;;;8.60;7.60;;;3.90;73.90;;;;;;5144540;27;20846;-47
2022/02/13 06:40:26;;;;;;;8.57;7.23;;;3.90;73.90;;;;;;5144273;27;20417;-47
2022/02/13 06:42:52;;;;;;;9.23;6.80;;;3.90;73.80;;;;;;5126608;27;20471;-47
2022/02/13 06:45:18;;;;;;;7.83;6.63;;;3.90;73.80;;;;;;5141226;27;20198;-47
2022/02/13 06:47:43;;;;;;;7.73;6.93;;;4.00;74.10;;;;;;5142095;27;20272;-47
2022/02/13 06:50:10;;;;;;;7.60;6.80;;;3.90;74.00;;;;;;5141339;27;20160;-47
2022/02/13 06:52:36;;;;;;;8.93;6.93;;;4.00;74.20;;;;;;5142090;27;20178;-47
2022/02/13 06:55:01;;;;;;;8.97;7.67;;;4.00;74.00;;;;;;5140621;27;20421;-47
2022/02/13 06:57:27;;;;;;;9.67;7.23;;;4.00;73.90;;;;;;5141956;27;20189;-47
2022/02/13 06:59:53;;;;;;;8.13;7.00;;;4.10;74.00;;;;;;5140613;27;20170;-47
2022/02/13 07:02:18;;;;;;;8.27;7.40;;;4.10;74.10;;;;;;5141287;27;20469;-46
2022/02/13 07:04:44;;;;;;;9.47;7.80;;;4.30;74.00;;;;;;5141649;27;20181;-46
2022/02/13 07:07:10;;;;;;;8.50;7.57;;;4.40;73.70;;;;;;5139571;27;20179;-46
2022/02/13 07:09:35;;;;;;;8.70;7.03;;;4.50;73.10;;;;;;5140568;27;20176;-46
2022/02/13 07:12:08;;;;;;;9.30;8.00;;;4.60;72.90;;;;;;5139836;27;20179;-47
2022/02/13 07:14:35;;;;;;;10.17;7.43;;;4.70;72.80;;;;;;5123751;27;20688;-47
2022/02/13 07:17:01;;;;;;;8.90;7.70;;;4.80;72.60;;;;;;5139179;27;20418;-47
2022/02/13 07:19:27;;;;;;;8.47;7.10;;;5.00;72.40;;;;;;5140883;27;20767;-47
2022/02/13 07:21:53;;;;;;;7.37;6.23;;;5.20;72.10;;;;;;5140245;27;20464;-47
2022/02/13 07:24:19;;;;;;;8.27;7.10;;;5.40;71.60;;;;;;5141226;27;20172;-47
2022/02/13 07:26:45;;;;;;;8.13;6.60;;;5.60;71.10;;;;;;5140461;27;20201;-47
2022/02/13 07:29:11;;;;;;;9.37;6.67;;;5.80;70.70;;;;;;5139816;27;20424;-47
2022/02/13 07:31:37;;;;;;;8.53;7.37;;;6.00;70.30;;;;;;5141032;27;20463;-47
2022/02/13 07:34:04;;;;;;;7.60;6.90;;;6.20;69.70;;;;;;5139850;27;20179;-47
2022/02/13 07:36:30;;;;;;;8.53;7.53;;;6.40;68.90;;;;;;5140619;27;20503;-47
2022/02/13 07:38:56;;;;;;;7.93;5.90;;;6.70;68.40;;;;;;5137949;27;20431;-47
2022/02/13 07:41:22;;;;;;;8.50;7.00;;;6.90;67.70;;;;;;5139695;27;20468;-47
2022/02/13 07:43:49;;;;;;;9.70;6.57;;;7.10;67.10;;;;;;5139060;27;20417;-47
2022/02/13 07:46:15;;;;;;;8.53;7.60;;;7.30;66.50;;;;;;5141286;27;20823;-47
2022/02/13 07:48:41;;;;;;;7.03;6.17;;;7.50;66.00;;;;;;5138909;27;20428;-42
2022/02/13 07:51:09;;;;;;;7.03;6.33;;;7.70;65.50;;;;;;5140277;27;20681;-40
2022/02/13 07:53:35;;;;;;;10.03;6.77;;;7.90;64.90;;;;;;5139122;27;20180;-42
2022/02/13 07:56:00;;;;;;;7.93;6.83;;;8.20;64.30;;;;;;5121606;27;20444;-42
2022/02/13 07:58:30;;;;;;;10.47;6.80;;;8.40;63.70;;;;;;5138805;27;20449;-42
2022/02/13 08:00:56;;;;;;;9.53;6.40;;;8.70;63.20;;;;;;5138600;27;20513;-41
2022/02/13 08:03:21;;;;;;;7.90;6.60;;;8.90;62.50;;;;;;5136952;27;20774;-40
2022/02/13 08:05:47;;;;;;;9.67;6.77;;;9.20;61.40;;;;;;5138556;27;20420;-41
2022/02/13 08:08:13;;;;;;;7.40;5.47;;;9.40;60.60;;;;;;5138710;27;20179;-41
2022/02/13 08:10:40;;;;;;;6.90;6.20;;;9.70;59.80;;;;;;5139467;27;20168;-41
2022/02/13 08:13:06;;;;;;;8.37;6.10;;;9.90;59.20;;;;;;5138780;27;20187;-43
2022/02/13 08:15:32;;;;;;;10.57;6.40;;;10.20;57.90;;;;;;5140158;27;20500;-41
2022/02/13 08:18:13;;;;;;;7.83;6.00;;;10.50;57.30;;;;;;5138269;27;20517;-40
2022/02/13 08:20:39;;;;;;;8.93;5.50;;;10.80;56.50;;;;;;5140156;27;20244;-41
2022/02/13 08:23:07;;;;;;;7.53;6.33;;;11.10;56.00;;;;;;5137199;27;21033;-42
2022/02/13 08:25:33;;;;;;;6.90;5.50;;;11.40;55.40;;;;;;5140063;27;20409;-40
2022/02/13 08:27:59;;;;;;;6.33;5.73;;;11.70;54.80;;;;;;5120940;27;20705;-40
2022/02/13 08:30:25;;;;;;;6.20;5.60;;;12.00;54.00;;;;;;5138864;27;20405;-41
2022/02/13 08:32:51;;;;;;;9.90;5.50;;;12.30;53.50;;;;;;5136812;27;20172;-41
2022/02/13 08:35:17;;;;;;;7.17;5.50;;;12.70;52.90;;;;;;5139119;27;20420;-40
2022/02/13 08:37:42;;;;;;;5.60;5.10;;;13.10;52.30;;;;;;5138548;27;20417;-42
2022/02/13 08:40:09;;;;;;;11.40;6.40;;;13.50;51.60;;;;;;5138881;27;20179;-40
2022/02/13 08:42:34;;;;;;;5.63;4.97;;;13.90;50.90;;;;;;5137095;27;20218;-41
2022/02/13 08:45:03;;;;;;;5.47;4.70;;;14.40;50.20;;;;;;5121379;27;20431;-42
2022/02/13 08:47:29;;;;;;;7.50;4.80;;;14.80;49.20;;;;;;5137506;27;20167;-43
2022/02/13 08:49:55;;;;;;;6.23;5.53;;;15.20;48.20;;;;;;5138072;27;20420;-44
2022/02/13 08:52:20;;;;;;;6.33;5.43;;;15.50;47.30;;;;;;5137464;27;20720;-42
2022/02/13 08:54:46;;;;;;;7.10;5.20;;;15.80;45.90;;;;;;5138826;27;20175;-42
2022/02/13 08:57:12;;;;;;;6.97;5.87;;;16.10;45.10;;;;;;5119390;27;20222;-41
2022/02/13 08:59:39;;;;;;;7.60;6.00;;;16.30;44.20;;;;;;5138658;27;20189;-41
2022/02/13 09:02:06;;;;;;;5.70;5.10;;;16.60;43.70;;;;;;5119761;27;20207;-40
2022/02/13 09:04:32;;;;;;;6.87;5.90;;;17.00;43.10;;;;;;5138444;27;20416;-41
2022/02/13 09:07:01;;;;;;;5.77;5.27;;;17.30;42.50;;;;;;5137708;27;20438;-42
2022/02/13 09:09:28;;;;;;;7.23;6.63;;;17.70;41.90;;;;;;5138425;27;20455;-41
2022/02/13 09:11:54;;;;;;;6.70;5.70;;;18.10;41.10;;;;;;5121003;27;20449;-42
2022/02/13 09:14:20;;;;;;;6.73;5.83;;;18.40;40.50;;;;;;5135193;27;20843;-42
2022/02/13 09:16:45;;;;;;;8.03;5.67;;;18.70;40.10;;;;;;5137930;27;20846;-43
2022/02/13 09:19:11;;;;;;;7.30;5.50;;;19.10;39.40;;;;;;5115992;28;20235;-42
2022/02/13 09:21:37;;;;;;;7.43;5.60;;;19.40;38.70;;;;;;5117174;28;20469;-42
2022/02/13 09:24:04;;;;;;;6.00;5.37;;;19.80;38.30;;;;;;5116409;28;20183;-42
2022/02/13 09:26:30;;;;;;;6.50;5.80;;;20.10;37.70;;;;;;5116422;28;20409;-42
2022/02/13 09:28:56;;;;;;;7.20;6.07;;;20.40;37.30;;;;;;5115154;28;20689;-43
2022/02/13 09:31:22;;;;;;;7.33;6.63;;;20.70;36.60;;;;;;5112729;28;20414;-41
2022/02/13 09:33:47;;;;;;;7.63;6.83;;;21.00;36.10;;;;;;5112889;28;20422;-43
2022/02/13 09:36:14;;;;;;;7.20;5.50;;;21.10;35.30;;;;;;5115049;28;20636;-42
2022/02/13 09:38:39;;;;;;;10.37;7.03;;;21.40;35.10;;;;;;5113674;28;20178;-42
2022/02/13 09:41:05;;;;;;;6.40;5.20;;;21.70;35.20;;;;;;5115943;28;20529;-45
2022/02/13 09:43:31;;;;;;;7.20;6.40;;;22.10;34.80;;;;;;5115392;28;20175;-41
2022/02/13 09:45:58;;;;;;;8.03;5.90;;;22.30;34.30;;;;;;5116359;28;20457;-42
2022/02/13 09:48:27;;;;;;;6.60;5.53;;;22.60;33.80;;;;;;5113940;28;20433;-42
2022/02/13 09:50:54;;;;;;;6.47;5.67;;;22.90;33.50;;;;;;5114887;28;20711;-41
2022/02/13 09:53:21;;;;;;;6.90;5.30;;;23.30;33.40;;;;;;5112981;28;20517;-42
2022/02/13 09:55:46;;;;;;;7.27;5.03;;;23.50;33.00;;;;;;5115423;28;20513;-42
2022/02/13 09:58:12;;;;;;;7.97;5.53;;;23.90;32.90;;;;;;5113197;28;20753;-42
2022/02/13 10:00:51;;;;;;;6.07;5.20;;;24.30;32.50;;;;;;5113948;28;20428;-45
2022/02/13 10:03:24;;;;;;;7.43;5.43;;;24.70;32.50;;;;;;5115751;28;20491;-42
2022/02/13 10:05:50;;;;;;;8.10;5.83;;;25.20;31.90;;;;;;5113652;28;20510;-43
2022/02/13 10:08:34;;;;;;;8.13;5.73;;;25.60;31.50;;;;;;5114090;28;20407;-42
2022/02/13 10:11:30;;;;;;;6.40;5.80;;;25.80;30.60;;;;;;5112432;28;20447;-43
2022/02/13 10:14:00;;;;;;;8.90;5.40;;;25.90;30.00;;;;;;5113136;28;20415;-42
2022/02/13 10:16:36;;;;;;;6.97;5.33;;;26.20;30.00;;;;;;5114858;28;20414;-42
2022/02/13 10:19:10;;;;;;;6.67;5.43;;;26.60;30.00;;;;;;5127998;27;20494;-44
2022/02/13 10:21:40;;;;;;;5.97;5.47;;;27.20;29.70;;;;;;5138595;27;20536;-41
2022/02/13 10:24:28;;;;;;;7.30;6.20;;;27.40;29.00;;;;;;5140934;27;20864;-43
2022/02/13 10:26:54;;;;;;;8.30;6.33;;;27.80;28.90;;;;;;5142234;27;20389;-44
2022/02/13 10:29:22;;;;;;;6.93;6.00;;;28.20;28.50;;;;;;5140818;27;20447;-42
2022/02/13 10:31:48;;;;;;;7.23;6.00;;;28.50;28.30;;;;;;5121195;27;20260;-42
2022/02/13 10:34:17;;;;;;;7.90;6.20;;;28.90;28.20;;;;;;5141063;27;20437;-42
2022/02/13 10:36:47;;;;;;;5.67;5.10;;;29.10;27.80;;;;;;5120968;27;20622;-42
2022/02/13 10:39:24;;;;;;;7.77;6.27;;;29.50;27.60;;;;;;5122006;27;20507;-43
2022/02/13 10:41:53;;;;;;;6.17;5.63;;;29.70;27.20;;;;;;5140670;27;20636;-42
2022/02/13 10:44:29;;;;;;;6.23;5.67;;;30.10;27.10;;;;;;5140327;27;20417;-41
2022/02/13 10:46:56;;;;;;;6.53;5.93;;;30.50;27.00;;;;;;5139340;27;20505;-44
2022/02/13 10:49:22;;;;;;;6.63;5.77;;;30.90;26.80;;;;;;5142157;27;20481;-43
2022/02/13 10:51:49;;;;;;;7.63;5.80;;;31.00;26.60;;;;;;5139917;27;20840;-44
2022/02/13 10:54:15;;;;;;;6.63;5.63;;;31.20;26.50;;;;;;5122751;27;20396;-42
2022/02/13 10:56:41;;;;;;;6.90;6.27;;;31.60;26.30;;;;;;5137763;27;20428;-42
2022/02/13 10:59:11;;;;;;;7.70;5.57;;;31.80;26.00;;;;;;5139823;27;20421;-44
2022/02/13 11:01:38;;;;;;;7.57;6.40;;;32.10;25.60;;;;;;5138654;27;20441;-43
2022/02/13 11:04:04;;;;;;;5.53;5.03;;;32.40;25.30;;;;;;5139330;27;20393;-45
2022/02/13 11:06:36;;;;;;;6.80;6.20;;;32.60;25.40;;;;;;5136083;27;20693;-44
2022/02/13 11:09:26;;;;;;;7.43;5.97;;;32.80;25.30;;;;;;5139456;27;20504;-44
2022/02/13 11:11:52;;;;;;;6.77;6.10;;;32.90;25.00;;;;;;5120727;27;20466;-42
2022/02/13 11:14:34;;;;;;;6.63;6.00;;;33.00;24.80;;;;;;5140179;27;20418;-44
2022/02/13 11:17:04;;;;;;;6.37;5.77;;;33.10;24.60;;;;;;5139314;27;20506;-42
2022/02/13 11:19:33;;;;;;;7.13;5.70;;;33.10;24.60;;;;;;5118579;28;20478;-42
2022/02/13 11:21:58;;;;;;;7.37;5.97;;;33.20;24.60;;;;;;5118065;28;20453;-42
2022/02/13 11:24:29;;;;;;;6.20;5.60;;;33.30;24.50;;;;;;5118720;28;20816;-45
2022/02/13 11:27:02;;;;;;;6.77;5.73;;;33.20;24.30;;;;;;5118001;28;20174;-42
2022/02/13 11:29:56;;;;;;;5.50;5.00;;;33.40;24.30;;;;;;5119928;28;20409;-43
2022/02/13 11:32:33;;;;;;;6.20;3.70;;;33.60;25.20;;;;;;5119255;28;20732;-53
2022/02/13 11:34:59;;;;;;;4.90;4.40;;;33.80;26.60;;;;;;5117368;28;20389;-42
2022/02/13 11:37:39;;;;;;;3.63;3.33;;;33.80;26.30;;;;;;5117756;28;20478;-42
2022/02/13 11:40:05;;;;;;;5.77;3.80;;;33.80;27.20;;;;;;5116039;28;20176;-43
2022/02/13 11:42:40;;;;;;;3.87;3.57;;;33.70;27.30;;;;;;5116534;28;20523;-45
2022/02/13 11:45:17;;;;;;;5.47;4.67;;;33.60;27.60;;;;;;5115743;28;20540;-45
2022/02/13 11:47:45;;;;;;;4.27;3.87;;;33.30;27.60;;;;;;5118374;28;20412;-43
2022/02/13 11:50:11;;;;;;;6.97;4.20;;;33.40;27.00;;;;;;5116860;28;20420;-43
2022/02/13 11:52:39;;;;;;;7.30;4.53;;;33.20;26.60;;;;;;5117203;28;20448;-43
2022/02/13 11:55:16;;;;;;;4.60;4.20;;;32.90;26.60;;;;;;5115496;28;20486;-45
2022/02/13 11:58:09;;;;;;;6.07;4.80;;;33.10;26.10;;;;;;5117215;28;20401;-43
2022/02/13 12:00:36;;;;;;;5.60;4.50;;;33.10;26.40;;;;;;5116315;28;20416;-45
2022/02/13 12:03:19;;;;;;;6.33;4.70;;;33.30;26.00;;;;;;5117386;28;20466;-45
2022/02/13 12:05:51;;;;;;;4.90;4.10;;;33.50;25.90;;;;;;5116562;28;20944;-44
2022/02/13 12:08:26;;;;;;;6.43;4.30;;;33.60;25.50;;;;;;5118673;28;20405;-46
2022/02/13 12:11:04;;;;;;;4.97;4.57;;;33.60;25.70;;;;;;5117850;28;20403;-45
2022/02/13 12:13:30;;;;;;;5.20;4.70;;;33.60;25.80;;;;;;5118018;28;20382;-43
2022/02/13 12:15:58;;;;;;;6.47;4.90;;;33.60;26.00;;;;;;5117187;28;20945;-44
2022/02/13 12:18:24;;;;;;;5.27;4.70;;;33.80;25.60;;;;;;5126884;27;20443;-44
2022/02/13 12:20:57;;;;;;;7.40;5.47;;;33.90;25.30;;;;;;5137725;27;20773;-43
2022/02/13 12:23:23;;;;;;;5.47;4.20;;;33.60;25.30;;;;;;5139201;27;20467;-44
2022/02/13 12:25:50;;;;;;;4.57;4.17;;;33.50;25.30;;;;;;5137958;27;20426;-42
2022/02/13 12:28:18;;;;;;;7.13;5.13;;;33.70;25.60;;;;;;5138321;27;20383;-43
2022/02/13 12:30:48;;;;;;;5.47;4.73;;;33.70;25.00;;;;;;5136930;27;20435;-42
2022/02/13 12:33:17;;;;;;;6.17;3.80;;;33.80;24.70;;;;;;5137817;27;20417;-43
2022/02/13 12:35:43;;;;;;;5.47;3.83;;;33.80;24.60;;;;;;5138572;27;20501;-45
2022/02/13 12:38:09;;;;;;;4.37;3.97;;;33.80;24.80;;;;;;5138836;27;20415;-42
2022/02/13 12:40:43;;;;;;;8.87;4.57;;;33.60;24.80;;;;;;5135537;27;20432;-45
2022/02/13 12:43:15;;;;;;;5.27;4.20;;;33.50;24.90;;;;;;5134566;27;20217;-43
2022/02/13 12:45:42;;;;;;;4.40;3.90;;;33.50;24.50;;;;;;5114746;27;20593;-42
2022/02/13 12:48:10;;;;;;;4.80;4.13;;;33.40;24.90;;;;;;5116904;27;20399;-42
2022/02/13 12:50:42;;;;;;;4.93;4.00;;;33.60;24.80;;;;;;5133988;27;20680;-44